Time;durP1;ratioP1;P1;durP2;ratioP2;P2;SDS_P1;SDS_P2;PMS_P1;PMS_P2;Temp;Humidity;BMP_temperature;BMP_pressure;BME280_temperature;BME280_humidity;BME280_pressure;Samples;Min_cycle;Max_cycle;Signal;HPM_P1;HPM_P2
2023/10/30 00:01:53;;;;;;;;;;;;;;;17.36;57.64;99117.81;4417017;32;33654;-79
2023/10/30 00:04:27;;;;;;;2.03;0.70;;;;;;;17.35;57.60;99107.38;4421658;32;34085;-80
2023/10/30 00:06:56;;;;;;;0.37;0.37;;;;;;;17.14;58.31;99111.94;4436316;32;34795;-80
2023/10/30 00:09:31;;;;;;;1.80;0.80;;;;;;;17.41;57.40;99112.34;4432078;32;33110;-80
2023/10/30 00:12:00;;;;;;;2.58;0.62;;;;;;;17.23;58.01;99117.56;4431369;32;34381;-82
2023/10/30 00:14:34;;;;;;;0.75;0.60;;;;;;;17.36;57.27;99128.28;4432968;32;33592;-81
2023/10/30 00:17:03;;;;;;;4.03;0.60;;;;;;;17.22;57.80;99122.88;4435156;32;33674;-82
2023/10/30 00:19:33;;;;;;;4.15;0.70;;;;;;;17.41;57.23;99122.81;4437445;32;33171;-81
2023/10/30 00:22:06;;;;;;;0.40;0.40;;;;;;;17.31;57.62;99138.16;4418159;32;33174;-80
2023/10/30 00:24:50;;;;;;;0.75;0.75;;;;;;;17.37;57.39;99130.00;4431879;32;33716;-81
2023/10/30 00:27:28;;;;;;;1.12;0.60;;;;;;;17.32;57.43;99123.28;4418328;32;33231;-81
2023/10/30 00:30:01;;;;;;;3.95;0.73;;;;;;;17.38;57.32;99121.19;4432811;32;33279;-81
2023/10/30 00:32:31;;;;;;;1.10;0.50;;;;;;;17.41;57.17;99128.91;4436884;32;34159;-81
2023/10/30 00:35:00;;;;;;;1.73;0.70;;;;;;;17.44;56.79;99126.13;4432351;32;34044;-80
2023/10/30 00:37:28;;;;;;;0.75;0.70;;;;;;;17.30;57.42;99125.13;4407240;32;32349;-80
2023/10/30 00:39:59;;;;;;;0.65;0.50;;;;;;;17.46;56.80;99126.06;4419008;32;32861;-81
2023/10/30 00:42:32;;;;;;;0.73;0.50;;;;;;;17.36;57.13;99122.22;4419604;32;33585;-81
2023/10/30 00:45:05;;;;;;;1.27;0.50;;;;;;;17.40;56.92;99114.12;4422218;32;33694;-79
2023/10/30 00:47:38;;;;;;;0.45;0.45;;;;;;;17.23;57.15;99120.19;4412087;32;33603;-80
2023/10/30 00:50:16;;;;;;;0.65;0.65;;;;;;;17.32;56.76;99126.75;4414190;32;33069;-82
2023/10/30 00:52:45;;;;;;;0.50;0.50;;;;;;;17.37;56.68;99109.03;4416596;32;33801;-78
2023/10/30 00:55:16;;;;;;;0.30;0.30;;;;;;;17.25;57.04;99102.63;4421444;32;33823;-80
2023/10/30 00:57:48;;;;;;;0.45;0.37;;;;;;;17.35;56.60;99105.62;4403555;32;33769;-83
2023/10/30 01:00:17;;;;;;;3.60;0.50;;;;;;;17.38;56.52;99097.59;4404692;32;33278;-80
2023/10/30 01:02:49;;;;;;;1.17;0.52;;;;;;;17.25;56.98;99102.63;4412159;32;34633;-82
2023/10/30 01:05:18;;;;;;;1.37;0.77;;;;;;;17.40;56.50;99098.38;4417552;32;34092;-78
2023/10/30 01:07:49;;;;;;;0.93;0.70;;;;;;;17.52;56.05;99101.28;4419554;32;33782;-82
2023/10/30 01:10:19;;;;;;;1.05;0.60;;;;;;;17.46;56.40;99095.44;4431225;32;35131;-80
2023/10/30 01:12:49;;;;;;;0.68;0.55;;;;;;;17.44;55.93;99093.81;4432156;32;34434;-80
2023/10/30 01:15:18;;;;;;;0.70;0.70;;;;;;;17.56;55.81;99094.97;4431234;32;33679;-79
2023/10/30 01:17:51;;;;;;;1.80;0.90;;;;;;;17.38;56.25;99087.13;4436503;32;34636;-80
2023/10/30 01:20:20;;;;;;;2.15;1.08;;;;;;;17.25;56.55;99092.16;4422851;32;33072;-79
2023/10/30 01:22:56;;;;;;;3.45;1.17;;;;;;;17.21;56.60;99095.00;4411035;32;34510;-80
2023/10/30 01:25:26;;;;;;;1.95;1.12;;;;;;;17.44;56.09;99101.69;4417008;32;34511;-80
2023/10/30 01:28:01;;;;;;;0.37;0.37;;;;;;;17.41;56.11;99094.81;4422323;32;33089;-81
2023/10/30 01:30:30;;;;;;;0.57;0.57;;;;;;;17.53;55.82;99095.13;4433146;32;33232;-80
2023/10/30 01:33:03;;;;;;;1.10;0.70;;;;;;;17.48;56.02;99098.00;4423003;32;33605;-80
2023/10/30 01:35:32;;;;;;;0.95;0.50;;;;;;;17.54;55.81;99097.69;4428909;32;33801;-81
2023/10/30 01:38:02;;;;;;;1.00;0.95;;;;;;;17.47;55.98;99096.31;4429891;32;33917;-80
2023/10/30 01:40:32;;;;;;;3.80;0.60;;;;;;;17.54;55.84;99091.56;4430023;32;33939;-82
2023/10/30 01:43:08;;;;;;;1.02;0.50;;;;;;;17.50;56.02;99083.03;4434931;32;33908;-80
2023/10/30 01:45:37;;;;;;;0.57;0.57;;;;;;;17.49;55.66;99082.19;4429272;32;34333;-80
2023/10/30 01:48:13;;;;;;;0.68;0.50;;;;;;;17.47;55.88;99086.66;4431748;32;33810;-80
2023/10/30 01:50:48;;;;;;;0.65;0.50;;;;;;;17.48;55.80;99083.09;4430470;32;33462;-81
2023/10/30 01:53:19;;;;;;;0.40;0.40;;;;;;;17.14;56.90;99083.94;4430790;32;33108;-78
2023/10/30 01:55:56;;;;;;;1.75;0.60;;;;;;;17.43;56.28;99079.03;4434187;32;33537;-83
2023/10/30 01:58:27;;;;;;;1.52;0.60;;;;;;;17.60;55.72;99084.25;4429881;32;34547;-83
2023/10/30 02:00:57;;;;;;;0.30;0.30;;;;;;;17.51;56.08;99092.56;4424844;32;32643;-82
2023/10/30 02:03:29;;;;;;;0.50;0.43;;;;;;;17.53;56.13;99084.63;4429956;32;33309;-81
2023/10/30 02:05:58;;;;;;;1.23;0.40;;;;;;;17.48;56.16;99087.50;4431972;32;35020;-79
2023/10/30 02:08:32;;;;;;;1.40;0.70;;;;;;;17.47;56.18;99080.56;4413131;32;33537;-81
2023/10/30 02:11:02;;;;;;;0.40;0.40;;;;;;;17.50;56.30;99080.41;4427827;32;32608;-81
2023/10/30 02:13:31;;;;;;;0.52;0.52;;;;;;;17.47;56.33;99076.16;4430569;32;35096;-79
2023/10/30 02:16:00;;;;;;;1.80;0.65;;;;;;;17.35;56.59;99079.41;4428187;32;33490;-81
2023/10/30 02:18:35;;;;;;;1.23;0.50;;;;;;;17.35;56.77;99074.19;4433014;32;33758;-78
2023/10/30 02:21:06;;;;;;;0.90;0.47;;;;;;;17.44;56.52;99075.47;4432020;32;33953;-80
2023/10/30 02:23:35;;;;;;;3.05;0.50;;;;;;;17.30;56.90;99072.69;4431277;32;34608;-80
2023/10/30 02:26:05;;;;;;;0.88;0.50;;;;;;;17.45;56.50;99066.69;4423612;32;34597;-80
2023/10/30 02:28:36;;;;;;;1.55;0.68;;;;;;;17.50;56.40;99067.28;4432844;32;33405;-80
2023/10/30 02:31:06;;;;;;;0.70;0.50;;;;;;;17.48;56.67;99074.38;4432898;32;33799;-82
2023/10/30 02:33:37;;;;;;;0.77;0.60;;;;;;;17.38;57.00;99068.75;4429912;32;33533;-79
2023/10/30 02:36:07;;;;;;;1.90;0.80;;;;;;;17.55;56.47;99077.53;4429752;32;34409;-83
2023/10/30 02:38:41;;;;;;;2.15;0.85;;;;;;;17.31;57.10;99074.41;4437334;32;34207;-82
2023/10/30 02:41:12;;;;;;;1.25;0.70;;;;;;;17.39;57.19;99080.94;4436458;32;33765;-81
2023/10/30 02:43:46;;;;;;;1.02;0.57;;;;;;;17.33;57.12;99088.28;4428791;32;33354;-80
2023/10/30 02:46:15;;;;;;;1.12;0.70;;;;;;;17.34;57.22;99087.34;4429190;32;34777;-79
2023/10/30 02:48:52;;;;;;;5.97;0.82;;;;;;;17.38;57.22;99092.38;4433758;32;33189;-82
2023/10/30 02:51:24;;;;;;;0.50;0.50;;;;;;;17.36;57.22;99094.22;4429442;32;33174;-82
2023/10/30 02:53:53;;;;;;;0.77;0.50;;;;;;;17.17;57.73;99093.44;4434402;32;34650;-79
2023/10/30 02:56:27;;;;;;;0.60;0.50;;;;;;;17.21;57.96;99092.38;4428538;32;33493;-84
2023/10/30 02:58:56;;;;;;;0.52;0.45;;;;;;;17.31;57.60;99085.72;4422306;32;33485;-80
2023/10/30 03:01:28;;;;;;;0.90;0.60;;;;;;;17.30;57.64;99086.66;4428034;32;33306;-82
2023/10/30 03:03:57;;;;;;;1.20;0.60;;;;;;;17.25;57.69;99086.03;4430466;32;33391;-80
2023/10/30 03:06:30;;;;;;;2.08;0.70;;;;;;;17.17;57.92;99083.78;4434475;32;34434;-81
2023/10/30 03:09:00;;;;;;;0.40;0.40;;;;;;;17.12;58.09;99088.41;4424247;32;33736;-80
2023/10/30 03:11:31;;;;;;;2.42;1.10;;;;;;;17.09;57.98;99087.75;4429269;32;33275;-80
2023/10/30 03:14:00;;;;;;;0.75;0.52;;;;;;;17.27;57.69;99089.41;4431642;32;33609;-80
2023/10/30 03:16:31;;;;;;;1.02;0.60;;;;;;;17.09;58.19;99088.59;4434230;32;34469;-78
2023/10/30 03:19:00;;;;;;;0.40;0.40;;;;;;;17.12;58.16;99091.03;4433910;32;34409;-82
2023/10/30 03:21:31;;;;;;;0.40;0.40;;;;;;;17.18;57.94;99096.00;4424952;32;32736;-80
2023/10/30 03:24:00;;;;;;;0.62;0.47;;;;;;;17.16;57.92;99095.22;4430561;32;34492;-80
2023/10/30 03:26:34;;;;;;;0.73;0.73;;;;;;;17.19;58.07;99099.47;4435584;32;33887;-79
2023/10/30 03:29:02;;;;;;;1.87;0.70;;;;;;;17.15;58.19;99097.91;4434563;32;34611;-81
2023/10/30 03:31:38;;;;;;;0.68;0.40;;;;;;;17.25;57.85;99096.50;4432593;32;33602;-83
2023/10/30 03:34:06;;;;;;;0.40;0.40;;;;;;;17.24;57.88;99100.06;4431967;32;33815;-84
2023/10/30 03:36:37;;;;;;;0.75;0.70;;;;;;;17.20;57.66;99099.38;4431645;32;33370;-80
2023/10/30 03:39:06;;;;;;;1.23;0.53;;;;;;;17.17;57.83;99103.91;4436362;32;34253;-80
2023/10/30 03:41:37;;;;;;;0.40;0.40;;;;;;;17.22;57.98;99094.06;4431530;32;33488;-82
2023/10/30 03:44:08;;;;;;;0.40;0.40;;;;;;;17.27;57.52;99097.28;4414493;32;33913;-80
2023/10/30 03:46:39;;;;;;;;;;;;;;;17.09;58.29;99100.84;4418811;32;32611;-80
2023/10/30 03:49:11;;;;;;;0.75;0.47;;;;;;;17.17;58.01;99093.44;4433701;32;34350;-80
2023/10/30 03:51:42;;;;;;;0.75;0.50;;;;;;;17.04;58.20;99093.19;4437336;32;33604;-84
2023/10/30 03:54:11;;;;;;;0.55;0.43;;;;;;;16.96;58.49;99098.81;4431005;32;33376;-79
2023/10/30 03:56:44;;;;;;;1.45;0.70;;;;;;;17.21;57.59;99089.75;4430537;32;34055;-81
2023/10/30 03:59:15;;;;;;;0.70;0.52;;;;;;;16.87;58.78;99091.41;4432548;32;33578;-83
2023/10/30 04:01:44;;;;;;;8.35;0.60;;;;;;;16.97;58.15;99095.28;4437526;32;33235;-80
2023/10/30 04:04:13;;;;;;;0.47;0.47;;;;;;;17.05;57.86;99094.87;4432379;32;34793;-80
2023/10/30 04:06:45;;;;;;;0.73;0.52;;;;;;;17.05;57.82;99087.88;4430982;32;33818;-79
2023/10/30 04:09:15;;;;;;;0.80;0.52;;;;;;;16.92;57.96;99089.41;4428754;32;34487;-82
2023/10/30 04:11:47;;;;;;;0.30;0.30;;;;;;;16.91;57.86;99079.84;4422815;32;34077;-78
2023/10/30 04:14:16;;;;;;;0.55;0.55;;;;;;;17.08;57.23;99088.66;4429379;32;33390;-81
2023/10/30 04:16:48;;;;;;;0.70;0.47;;;;;;;17.11;57.19;99080.66;4432471;32;34587;-80
2023/10/30 04:19:17;;;;;;;3.12;0.98;;;;;;;16.85;57.70;99094.09;4436695;32;34892;-80
2023/10/30 04:21:54;;;;;;;1.40;1.00;;;;;;;16.96;57.47;99085.72;4419563;32;33589;-79
2023/10/30 04:24:23;;;;;;;0.50;0.50;;;;;;;16.97;57.39;99082.16;4417460;32;34472;-80
2023/10/30 04:26:53;;;;;;;0.40;0.40;;;;;;;17.00;57.23;99089.88;4433307;32;34532;-83
2023/10/30 04:29:22;;;;;;;0.80;0.57;;;;;;;17.11;56.71;99088.53;4430914;32;34210;-80
2023/10/30 04:31:52;;;;;;;0.77;0.65;;;;;;;17.06;56.42;99089.59;4430666;32;33114;-79
2023/10/30 04:34:21;;;;;;;2.95;0.95;;;;;;;17.19;56.43;99092.44;4431211;32;33923;-78
2023/10/30 04:36:50;;;;;;;0.62;0.57;;;;;;;17.06;56.53;99086.13;4434008;32;33785;-79
2023/10/30 04:39:20;;;;;;;0.93;0.62;;;;;;;16.79;57.64;99093.53;4432190;32;33243;-78
2023/10/30 04:41:55;;;;;;;0.50;0.50;;;;;;;16.96;56.78;99075.25;4429089;32;33388;-80
2023/10/30 04:44:26;;;;;;;0.47;0.40;;;;;;;16.88;57.34;99080.00;4430814;32;34280;-80
2023/10/30 04:46:58;;;;;;;0.65;0.55;;;;;;;17.03;56.40;99076.63;4431969;32;32890;-80
2023/10/30 04:49:26;;;;;;;2.40;0.57;;;;;;;16.89;56.92;99073.84;4432629;32;33726;-80
2023/10/30 04:51:58;;;;;;;0.50;0.50;;;;;;;16.95;56.78;99084.00;4429422;32;33322;-80
2023/10/30 04:54:27;;;;;;;0.47;0.47;;;;;;;16.88;56.81;99084.38;4431010;32;33364;-80
2023/10/30 04:56:59;;;;;;;1.40;0.70;;;;;;;16.83;56.79;99085.44;4434072;32;34099;-79
2023/10/30 04:59:29;;;;;;;0.52;0.50;;;;;;;16.89;56.70;99083.44;4436761;32;33287;-80
2023/10/30 05:02:02;;;;;;;0.50;0.50;;;;;;;16.87;56.36;99086.16;4432208;32;33710;-80
2023/10/30 05:04:33;;;;;;;0.70;0.60;;;;;;;16.86;56.50;99089.69;4431401;32;34523;-82
2023/10/30 05:07:03;;;;;;;0.60;0.60;;;;;;;16.93;56.20;99092.88;4431069;32;33048;-80
2023/10/30 05:09:33;;;;;;;3.97;1.52;;;;;;;16.88;56.11;99087.84;4431027;32;33971;-80
2023/10/30 05:12:04;;;;;;;2.78;1.10;;;;;;;16.88;56.14;99092.25;4426042;32;33216;-80
2023/10/30 05:14:37;;;;;;;4.70;1.48;;;;;;;16.96;56.02;99087.47;4429417;32;33465;-82
2023/10/30 05:17:11;;;;;;;1.08;0.65;;;;;;;17.05;55.93;99085.25;4428012;32;34893;-82
2023/10/30 05:19:43;;;;;;;4.20;1.23;;;;;;;16.89;56.15;99099.19;4432166;32;35403;-79
2023/10/30 05:22:15;;;;;;;0.75;0.65;;;;;;;16.75;56.67;99102.44;4428385;32;33114;-80
2023/10/30 05:24:50;;;;;;;2.92;1.50;;;;;;;16.91;56.27;99108.66;4435916;32;34167;-81
2023/10/30 05:27:19;;;;;;;2.37;0.90;;;;;;;16.73;56.66;99117.37;4429211;32;34529;-82
2023/10/30 05:29:51;;;;;;;4.03;1.58;;;;;;;16.82;56.29;99115.22;4431281;32;33783;-83
2023/10/30 05:32:19;;;;;;;2.75;1.58;;;;;;;16.92;55.93;99117.37;4429290;32;33791;-80
2023/10/30 05:34:53;;;;;;;2.10;0.82;;;;;;;16.94;56.08;99119.00;4432133;32;33507;-81
2023/10/30 05:37:22;;;;;;;2.92;1.00;;;;;;;17.11;55.68;99122.59;4427527;32;33568;-83
2023/10/30 05:39:52;;;;;;;2.50;1.05;;;;;;;16.94;55.92;99124.25;4428651;32;34445;-79
2023/10/30 05:42:21;;;;;;;0.80;0.80;;;;;;;16.75;56.60;99133.88;4424688;32;33065;-81
2023/10/30 05:44:56;;;;;;;1.40;0.55;;;;;;;16.87;56.38;99128.09;4429762;32;33435;-80
2023/10/30 05:47:25;;;;;;;0.50;0.50;;;;;;;16.71;56.75;99127.91;4432275;32;34584;-80
2023/10/30 05:49:57;;;;;;;1.10;0.65;;;;;;;16.75;56.74;99126.88;4435482;32;33048;-80
2023/10/30 05:52:27;;;;;;;1.75;1.00;;;;;;;16.69;56.47;99134.16;4429425;32;33071;-81
2023/10/30 05:54:59;;;;;;;1.33;0.70;;;;;;;16.53;57.07;99134.88;4430259;32;34445;-80
2023/10/30 05:57:27;;;;;;;2.05;0.65;;;;;;;16.77;56.46;99139.91;4434693;32;33580;-80
2023/10/30 06:00:00;;;;;;;1.45;0.60;;;;;;;16.82;56.40;99145.81;4432589;32;33411;-80
2023/10/30 06:02:31;;;;;;;1.05;0.70;;;;;;;16.76;56.60;99148.66;4430447;32;35942;-80
2023/10/30 06:05:06;;;;;;;4.75;1.90;;;;;;;16.71;56.64;99145.41;4429140;32;35607;-79
2023/10/30 06:07:39;;;;;;;3.62;1.50;;;;;;;16.81;56.39;99144.94;4428962;32;34500;-81
2023/10/30 06:10:10;;;;;;;2.05;1.00;;;;;;;16.86;56.11;99152.56;4434704;32;34284;-79
2023/10/30 06:12:44;;;;;;;3.55;1.02;;;;;;;16.74;56.21;99155.75;4429804;32;32614;-81
2023/10/30 06:15:15;;;;;;;4.15;1.35;;;;;;;16.94;55.83;99158.31;4429967;32;34626;-79
2023/10/30 06:17:45;;;;;;;3.03;1.20;;;;;;;16.91;55.96;99153.19;4420351;32;32979;-79
2023/10/30 06:20:14;;;;;;;2.78;1.27;;;;;;;16.91;56.26;99154.97;4428587;32;34102;-83
2023/10/30 06:22:46;;;;;;;2.40;0.90;;;;;;;17.02;56.18;99148.28;4427176;32;32472;-78
2023/10/30 06:25:15;;;;;;;3.30;0.70;;;;;;;17.01;55.91;99157.09;4430149;32;33571;-81
2023/10/30 06:27:48;;;;;;;1.20;0.73;;;;;;;17.01;56.20;99159.72;4429696;32;34253;-78
2023/10/30 06:30:18;;;;;;;1.23;0.57;;;;;;;17.09;55.92;99161.13;4417461;32;32680;-79
2023/10/30 06:32:49;;;;;;;1.00;0.52;;;;;;;17.20;55.76;99156.19;4436082;32;33698;-79
2023/10/30 06:35:18;;;;;;;4.45;0.70;;;;;;;17.08;56.13;99155.00;4429741;32;33422;-80
2023/10/30 06:37:48;;;;;;;0.77;0.57;;;;;;;17.09;56.15;99163.75;4427910;32;34626;-78
2023/10/30 06:40:20;;;;;;;0.60;0.60;;;;;;;17.30;55.20;99162.69;4430342;32;34023;-80
2023/10/30 06:42:49;;;;;;;1.50;0.50;;;;;;;17.31;55.42;99159.12;4429782;32;33048;-79
2023/10/30 06:45:20;;;;;;;0.65;0.43;;;;;;;17.22;56.03;99170.91;4429703;32;34175;-81
2023/10/30 06:47:51;;;;;;;0.75;0.40;;;;;;;17.32;55.81;99179.19;4425204;32;33138;-79
2023/10/30 06:50:22;;;;;;;1.37;0.50;;;;;;;17.36;55.42;99178.09;4431681;32;33476;-80
2023/10/30 06:52:55;;;;;;;2.25;0.70;;;;;;;17.27;55.69;99174.16;4414755;32;32991;-81
2023/10/30 06:55:26;;;;;;;0.90;0.70;;;;;;;17.48;55.53;99179.28;4432795;32;34267;-81
2023/10/30 06:57:57;;;;;;;;;;;;;;;17.28;56.21;99180.28;4432153;32;34771;-80
2023/10/30 07:00:27;;;;;;;0.82;0.70;;;;;;;17.32;55.72;99179.19;4430574;32;33499;-82
2023/10/30 07:02:58;;;;;;;0.60;0.60;;;;;;;17.54;55.49;99183.38;4427889;32;33393;-82
2023/10/30 07:05:27;;;;;;;0.45;0.45;;;;;;;17.35;55.86;99186.91;4429822;32;33976;-80
2023/10/30 07:07:58;;;;;;;1.30;0.68;;;;;;;17.50;54.69;99177.44;4413268;32;33254;-81
2023/10/30 07:10:27;;;;;;;1.42;0.70;;;;;;;17.37;55.30;99179.81;4428625;32;32821;-80
2023/10/30 07:13:02;;;;;;;1.15;0.73;;;;;;;17.35;55.68;99184.28;4419362;32;33297;-83
2023/10/30 07:15:32;;;;;;;0.90;0.45;;;;;;;17.55;55.46;99178.06;4421127;32;33555;-81
2023/10/30 07:18:02;;;;;;;2.62;0.80;;;;;;;17.44;56.13;99190.84;4430232;32;33026;-80
2023/10/30 07:20:31;;;;;;;0.50;0.50;;;;;;;17.61;56.13;99190.00;4434697;32;34356;-82
2023/10/30 07:23:02;;;;;;;0.45;0.45;;;;;;;17.63;55.88;99198.66;4428225;32;33382;-80
2023/10/30 07:25:31;;;;;;;0.60;0.50;;;;;;;17.76;55.21;99188.38;4421296;32;33454;-82
2023/10/30 07:28:06;;;;;;;0.43;0.32;;;;;;;17.81;54.50;99200.37;4423756;32;34686;-80
2023/10/30 07:30:36;;;;;;;0.60;0.60;;;;;;;18.03;54.45;99192.25;4427080;32;34577;-79
2023/10/30 07:33:08;;;;;;;0.37;0.37;;;;;;;17.99;55.26;99201.22;4419809;32;33723;-80
2023/10/30 07:35:37;;;;;;;1.48;0.47;;;;;;;18.04;54.23;99196.56;4419664;32;34394;-80
2023/10/30 07:38:08;;;;;;;5.72;0.68;;;;;;;18.05;54.16;99190.41;4418002;32;34801;-79
2023/10/30 07:40:37;;;;;;;0.73;0.68;;;;;;;18.06;54.76;99194.72;4423270;32;33917;-80
2023/10/30 07:43:11;;;;;;;0.95;0.40;;;;;;;18.31;53.49;99194.31;4431259;32;34288;-83
2023/10/30 07:45:42;;;;;;;0.85;0.50;;;;;;;18.29;53.66;99190.03;4400188;32;33203;-79
2023/10/30 07:48:15;;;;;;;1.50;0.47;;;;;;;18.26;53.72;99198.06;4424468;32;34442;-81
2023/10/30 07:50:52;;;;;;;0.60;0.40;;;;;;;18.26;54.22;99209.41;4414252;32;33778;-82
2023/10/30 07:53:24;;;;;;;0.40;0.40;;;;;;;18.37;53.16;99201.00;4415898;32;34126;-80
2023/10/30 07:55:53;;;;;;;1.08;0.82;;;;;;;18.31;53.19;99198.69;4419472;32;33138;-81
2023/10/30 07:58:23;;;;;;;1.02;0.70;;;;;;;18.42;52.87;99206.84;4414798;32;33624;-80
2023/10/30 08:00:55;;;;;;;0.70;0.62;;;;;;;18.47;53.64;99219.75;4412397;32;33499;-81
2023/10/30 08:03:27;;;;;;;2.25;1.12;;;;;;;18.65;53.49;99212.62;4419322;32;32538;-80
2023/10/30 08:05:59;;;;;;;0.80;0.50;;;;;;;18.68;52.55;99210.72;4423836;32;34013;-80
2023/10/30 08:08:30;;;;;;;1.42;0.57;;;;;;;18.61;53.07;99217.22;4420940;32;34120;-81
2023/10/30 08:11:00;;;;;;;0.50;0.40;;;;;;;18.40;54.52;99213.94;4425999;32;33695;-78
2023/10/30 08:13:29;;;;;;;1.08;0.80;;;;;;;18.69;52.91;99215.03;4417042;32;33555;-79
2023/10/30 08:15:59;;;;;;;0.37;0.37;;;;;;;18.78;52.74;99197.09;4416760;32;33594;-82
2023/10/30 08:18:28;;;;;;;1.05;0.57;;;;;;;18.86;52.19;99202.78;4420604;32;33670;-79
2023/10/30 08:21:00;;;;;;;4.45;0.70;;;;;;;18.66;53.39;99217.81;4413432;32;33851;-82
2023/10/30 08:23:36;;;;;;;1.00;0.80;;;;;;;19.02;51.71;99206.25;4417947;32;33233;-80
2023/10/30 08:26:09;;;;;;;0.82;0.75;;;;;;;19.13;51.87;99197.75;4424891;32;33597;-82
2023/10/30 08:28:45;;;;;;;0.70;0.60;;;;;;;19.13;51.87;99203.03;4436687;32;34435;-78
2023/10/30 08:31:17;;;;;;;0.50;0.50;;;;;;;19.37;51.47;99203.41;4435642;32;33597;-80
2023/10/30 08:33:49;;;;;;;1.37;0.75;;;;;;;19.28;51.90;99193.41;4428873;32;34225;-81
2023/10/30 08:36:25;;;;;;;1.65;0.50;;;;;;;19.36;51.70;99188.56;4431424;32;34551;-82
2023/10/30 08:38:56;;;;;;;0.95;0.40;;;;;;;19.42;51.59;99182.94;4431398;32;34793;-81
2023/10/30 08:41:26;;;;;;;0.30;0.30;;;;;;;19.45;51.08;99193.31;4433272;32;33433;-78
2023/10/30 08:43:58;;;;;;;0.40;0.40;;;;;;;19.45;50.87;99181.91;4439058;32;33952;-79
2023/10/30 08:46:32;;;;;;;2.20;0.52;;;;;;;19.67;51.00;99192.03;4420958;32;34591;-80
2023/10/30 08:49:01;;;;;;;1.35;0.55;;;;;;;19.62;51.24;99189.72;4421959;32;33621;-80
2023/10/30 08:51:30;;;;;;;1.15;0.52;;;;;;;19.73;50.92;99187.31;4429043;32;33573;-80
2023/10/30 08:53:59;;;;;;;0.52;0.37;;;;;;;19.81;51.22;99189.47;4421968;32;33727;-80
2023/10/30 08:56:34;;;;;;;0.93;0.32;;;;;;;19.80;51.65;99179.91;4424435;32;33817;-80
2023/10/30 08:59:04;;;;;;;0.30;0.30;;;;;;;20.11;51.55;99178.06;4429746;32;34372;-80
2023/10/30 09:01:37;;;;;;;0.57;0.43;;;;;;;20.16;50.55;99178.63;4431844;32;34567;-80
2023/10/30 09:04:10;;;;;;;0.30;0.30;;;;;;;20.21;50.30;99179.19;4429914;32;33407;-80
2023/10/30 09:06:45;;;;;;;0.40;0.40;;;;;;;20.33;50.45;99182.88;4435747;32;33507;-78
2023/10/30 09:09:18;;;;;;;1.05;0.95;;;;;;;20.69;49.94;99186.84;4430439;32;34487;-79
2023/10/30 09:11:48;;;;;;;0.88;0.40;;;;;;;20.50;49.38;99181.81;4429574;32;33504;-81
2023/10/30 09:14:20;;;;;;;0.68;0.40;;;;;;;20.74;49.78;99184.75;4428269;32;33046;-78
2023/10/30 09:16:54;;;;;;;1.15;0.30;;;;;;;20.74;50.27;99174.22;4433957;32;32274;-83
2023/10/30 09:19:28;;;;;;;0.40;0.40;;;;;;;20.99;49.34;99184.03;4436245;32;33618;-80
2023/10/30 09:22:06;;;;;;;0.25;0.25;;;;;;;20.77;49.82;99182.75;4426337;32;35011;-79
2023/10/30 09:24:35;;;;;;;0.37;0.37;;;;;;;21.07;48.83;99184.41;4431496;32;33998;-79
2023/10/30 09:27:05;;;;;;;0.30;0.30;;;;;;;21.03;49.44;99196.06;4418774;32;34390;-81
2023/10/30 09:29:34;;;;;;;2.50;0.70;;;;;;;21.27;48.38;99212.09;4418780;32;34402;-81
2023/10/30 09:32:07;;;;;;;0.25;0.25;;;;;;;21.16;48.71;99207.50;4414437;32;33592;-81
2023/10/30 09:34:36;;;;;;;1.33;0.40;;;;;;;21.29;48.81;99211.06;4412698;32;32937;-79
2023/10/30 09:37:08;;;;;;;0.52;0.30;;;;;;;21.39;47.88;99198.16;4415787;32;34451;-80
2023/10/30 09:39:37;;;;;;;0.22;0.22;;;;;;;21.66;46.94;99200.75;4421219;32;34748;-80
2023/10/30 09:42:09;;;;;;;1.52;0.90;;;;;;;21.64;47.05;99194.72;4422975;32;34015;-79
2023/10/30 09:44:37;;;;;;;0.30;0.30;;;;;;;21.73;46.86;99195.91;4424859;32;33012;-82
2023/10/30 09:47:11;;;;;;;0.47;0.20;;;;;;;21.54;47.11;99206.84;4419813;32;33777;-79
2023/10/30 09:49:40;;;;;;;0.65;0.30;;;;;;;21.67;46.60;99202.44;4415675;32;33715;-82
2023/10/30 09:52:10;;;;;;;2.30;0.40;;;;;;;21.76;46.98;99190.41;4419718;32;34145;-80
2023/10/30 09:54:40;;;;;;;2.70;0.52;;;;;;;21.88;47.08;99196.66;4421028;32;32944;-80
2023/10/30 09:57:13;;;;;;;0.90;0.50;;;;;;;21.81;46.41;99177.75;4412054;32;32839;-79
2023/10/30 09:59:43;;;;;;;0.90;0.35;;;;;;;21.89;46.55;99186.00;4434948;32;34481;-79
2023/10/30 10:02:17;;;;;;;1.20;0.40;;;;;;;22.03;46.88;99184.19;4431889;32;33549;-79
2023/10/30 10:04:46;;;;;;;0.88;0.32;;;;;;;22.10;46.37;99182.84;4436869;32;34134;-80
2023/10/30 10:07:17;;;;;;;1.20;0.35;;;;;;;22.09;46.77;99191.72;4417946;32;33408;-80
2023/10/30 10:10:03;;;;;;;0.60;0.30;;;;;;;22.12;45.63;99184.41;4416382;32;33716;-80
2023/10/30 10:12:34;;;;;;;0.75;0.55;;;;;;;22.14;46.81;99179.88;4414546;32;33884;-80
2023/10/30 10:15:09;;;;;;;0.70;0.40;;;;;;;22.13;45.71;99167.63;4416586;32;32906;-80
2023/10/30 10:17:45;;;;;;;0.45;0.30;;;;;;;22.19;46.24;99182.19;4414441;32;33543;-80
2023/10/30 10:20:21;;;;;;;0.60;0.43;;;;;;;22.18;46.92;99183.16;4401029;32;33820;-80
2023/10/30 10:22:54;;;;;;;2.10;0.68;;;;;;;22.15;46.25;99192.13;4407494;32;34914;-79
2023/10/30 10:25:26;;;;;;;0.50;0.40;;;;;;;22.29;45.93;99179.78;4447460;32;33648;-80
2023/10/30 10:27:55;;;;;;;1.50;0.40;;;;;;;22.09;45.91;99171.44;4451245;32;34726;-80
2023/10/30 10:30:32;;;;;;;1.30;0.50;;;;;;;22.02;46.50;99170.16;4444275;32;34146;-80
2023/10/30 10:33:05;;;;;;;0.47;0.37;;;;;;;21.96;45.69;99173.22;4426904;32;33909;-81
2023/10/30 10:35:41;;;;;;;0.57;0.43;;;;;;;22.02;45.19;99178.09;4420495;32;33392;-82
2023/10/30 10:38:16;;;;;;;0.35;0.35;;;;;;;22.13;45.42;99183.47;4408971;32;33877;-78
2023/10/30 10:40:47;;;;;;;0.75;0.40;;;;;;;22.10;45.48;99186.31;4435344;32;33640;-81
2023/10/30 10:43:19;;;;;;;0.35;0.22;;;;;;;21.96;45.57;99178.50;4438247;32;34033;-78
2023/10/30 10:45:53;;;;;;;2.75;0.68;;;;;;;22.13;45.01;99183.47;4435569;32;33310;-80
2023/10/30 10:48:25;;;;;;;1.25;0.40;;;;;;;22.07;45.10;99183.88;4431747;32;33742;-81
2023/10/30 10:50:57;;;;;;;0.32;0.30;;;;;;;22.11;45.46;99177.47;4436267;32;34400;-82
2023/10/30 10:53:28;;;;;;;1.00;0.40;;;;;;;22.02;45.88;99174.59;4436251;32;33630;-81
2023/10/30 10:56:04;;;;;;;1.50;0.50;;;;;;;22.13;45.75;99178.19;4424538;32;33586;-81
2023/10/30 10:58:41;;;;;;;0.65;0.55;;;;;;;22.15;45.80;99157.78;4435203;32;34044;-82
2023/10/30 11:01:31;;;;;;;1.20;0.50;;;;;;;22.06;46.79;99169.00;4386695;32;35600;-83
2023/10/30 11:04:05;;;;;;;1.35;0.60;;;;;;;22.26;45.99;99175.56;4428059;32;34012;-80
2023/10/30 11:06:38;;;;;;;2.03;0.40;;;;;;;22.36;45.32;99175.78;4435332;32;33506;-81
2023/10/30 11:09:18;;;;;;;0.62;0.30;;;;;;;22.42;45.44;99172.69;4438424;32;33929;-79
2023/10/30 11:11:55;;;;;;;1.40;0.40;;;;;;;22.52;44.64;99165.81;4435425;32;34848;-79
2023/10/30 11:14:32;;;;;;;0.85;0.43;;;;;;;22.49;45.85;99170.47;4420833;32;32400;-83
2023/10/30 11:17:02;;;;;;;1.15;0.50;;;;;;;22.57;45.30;99157.56;4435014;32;34356;-81
2023/10/30 11:19:36;;;;;;;0.85;0.30;;;;;;;22.51;45.07;99166.75;4434278;32;33236;-79
2023/10/30 11:22:05;;;;;;;1.20;0.50;;;;;;;22.37;45.01;99151.03;4436214;32;33998;-81
2023/10/30 11:24:40;;;;;;;3.12;0.52;;;;;;;22.38;45.65;99144.81;4430613;32;34815;-79
2023/10/30 11:27:40;;;;;;;0.50;0.30;;;;;;;22.34;45.63;99154.72;4431275;32;33718;-80
2023/10/30 11:30:11;;;;;;;1.35;0.50;;;;;;;22.46;45.67;99153.03;4418148;32;34336;-81
2023/10/30 11:32:53;;;;;;;3.03;0.52;;;;;;;22.46;45.73;99150.38;4417083;32;33251;-79
2023/10/30 11:35:25;;;;;;;0.68;0.30;;;;;;;22.27;46.34;99142.06;4429397;32;34351;-79
2023/10/30 11:37:54;;;;;;;0.85;0.40;;;;;;;22.39;46.37;99153.56;4437625;32;34004;-79
2023/10/30 11:40:25;;;;;;;1.05;0.50;;;;;;;22.34;45.37;99145.97;4435470;32;34316;-82
2023/10/30 11:42:56;;;;;;;1.45;0.40;;;;;;;22.39;45.88;99148.28;4432402;32;33983;-81
2023/10/30 11:45:32;;;;;;;1.33;0.60;;;;;;;22.47;46.28;99149.44;4428657;32;33995;-79
2023/10/30 11:48:08;;;;;;;0.40;0.40;;;;;;;22.37;45.95;99132.53;4435938;32;32919;-81
2023/10/30 11:50:47;;;;;;;0.30;0.30;;;;;;;22.31;45.55;99139.09;4437142;32;33822;-81
2023/10/30 11:53:21;;;;;;;0.40;0.40;;;;;;;22.41;46.42;99128.72;4427886;32;35761;-82
2023/10/30 11:55:52;;;;;;;0.98;0.43;;;;;;;22.47;46.79;99122.13;4429778;32;34378;-80